Terminal Aerodrome Forecast
Issued by NWS

Home | Current Version | Previous Version | Text Only | Print | Product List | Glossary On
Versions: 1 2 3 4 5 6 7 8 9 10 11 12 13 14 15 16 17
898
FTUS43 KJKL 240521
TAFSJS
TAF
KSJS 240521Z 2406/2506 00000KT 5SM BR VCSH SCT001 OVC008
     FM240800 00000KT 3SM BR SCT001 OVC003
     FM241100 00000KT 3SM BR VCSH SCT001 OVC003
     FM241500 15004KT P6SM SHRA VCTS SCT020CB OVC030
     FM250000 18004KT P6SM -SHRA OVC030=

USA.gov is the U.S. government's official web portal to all federal, state and local government web resources and services.